Time;durP1;ratioP1;P1;durP2;ratioP2;P2;SDS_P1;SDS_P2;PMS_P1;PMS_P2;Temp;Humidity;BMP_temperature;BMP_pressure;BME280_temperature;BME280_humidity;BME280_pressure;Samples;Min_cycle;Max_cycle;Signal;HPM_P1;HPM_P2
2023/04/30 00:00:42;;;;;;;5.95;2.80;;;;;;;;;;10331232;28;20034;-49
2023/04/30 00:05:42;;;;;;;3.53;2.65;;;;;;;;;;10319864;28;20489;-50
2023/04/30 00:10:43;;;;;;;3.63;2.45;;;;;;;;;;10328848;28;20022;-50
2023/04/30 00:15:44;;;;;;;2.97;2.22;;;;;;;;;;10324627;28;20179;-50
2023/04/30 00:20:44;;;;;;;4.60;2.50;;;;;;;;;;10335457;28;20034;-49
2023/04/30 00:25:45;;;;;;;5.65;2.65;;;;;;;;;;10329983;28;20498;-51
2023/04/30 00:30:46;;;;;;;2.17;2.00;;;;;;;;;;10325123;28;20037;-50
2023/04/30 00:35:46;;;;;;;5.07;2.50;;;;;;;;;;10319043;28;20520;-51
2023/04/30 00:40:48;;;;;;;3.20;2.38;;;;;;;;;;10319765;28;20096;-50
2023/04/30 00:45:48;;;;;;;5.72;2.75;;;;;;;;;;10315031;28;20034;-51
2023/04/30 00:50:49;;;;;;;5.00;3.05;;;;;;;;;;10324188;28;20406;-49
2023/04/30 00:55:50;;;;;;;5.05;2.53;;;;;;;;;;10324287;28;20474;-50
2023/04/30 01:00:51;;;;;;;3.03;2.22;;;;;;;;;;10326717;28;20532;-49
2023/04/30 01:05:52;;;;;;;6.45;2.65;;;;;;;;;;10322468;28;20035;-50
2023/04/30 01:11:32;;;;;;;4.65;2.30;;;;;;;;;;10323321;28;20030;-51
2023/04/30 01:16:50;;;;;;;5.47;2.38;;;;;;;;;;10311214;28;20434;-50
2023/04/30 01:21:51;;;;;;;4.13;2.53;;;;;;;;;;10340484;28;20029;-51
2023/04/30 01:27:26;;;;;;;2.88;2.17;;;;;;;;;;10339782;28;20514;-50
2023/04/30 01:32:27;;;;;;;3.58;2.80;;;;;;;;;;10309883;28;20038;-49
2023/04/30 01:37:56;;;;;;;4.78;2.45;;;;;;;;;;10337063;28;20046;-49
2023/04/30 01:43:21;;;;;;;2.35;2.15;;;;;;;;;;10266557;28;20034;-49
2023/04/30 01:48:34;;;;;;;3.88;2.40;;;;;;;;;;10339982;28;20490;-50
2023/04/30 01:53:41;;;;;;;6.55;2.58;;;;;;;;;;10325604;28;20030;-50
2023/04/30 01:58:43;;;;;;;4.13;2.47;;;;;;;;;;10336829;28;20552;-50
2023/04/30 02:03:44;;;;;;;2.75;1.98;;;;;;;;;;10337059;28;20099;-50
2023/04/30 02:08:44;;;;;;;2.58;2.05;;;;;;;;;;10336106;28;20451;-49
2023/04/30 02:13:45;;;;;;;5.47;2.30;;;;;;;;;;10331898;28;20030;-50
2023/04/30 02:18:46;;;;;;;2.35;2.08;;;;;;;;;;10336438;28;20030;-53
2023/04/30 02:23:47;;;;;;;3.85;2.67;;;;;;;;;;10342101;28;20026;-49
2023/04/30 02:28:48;;;;;;;4.47;2.60;;;;;;;;;;10329378;28;20453;-50
2023/04/30 02:33:48;;;;;;;4.50;2.47;;;;;;;;;;10330400;28;20046;-50
2023/04/30 02:38:49;;;;;;;3.53;2.33;;;;;;;;;;10329230;28;20062;-51
2023/04/30 02:43:50;;;;;;;2.70;2.42;;;;;;;;;;10325930;28;20061;-51
2023/04/30 02:48:51;;;;;;;3.25;2.22;;;;;;;;;;10326600;28;20061;-52
2023/04/30 02:53:52;;;;;;;3.17;2.30;;;;;;;;;;10329845;28;20034;-50
2023/04/30 02:58:52;;;;;;;3.92;2.28;;;;;;;;;;10328213;28;20391;-51
2023/04/30 03:03:53;;;;;;;3.85;2.50;;;;;;;;;;10328210;28;20027;-50
2023/04/30 03:08:53;;;;;;;2.88;2.30;;;;;;;;;;10321641;28;20035;-49
2023/04/30 03:13:54;;;;;;;2.80;2.33;;;;;;;;;;10328896;28;20114;-49
2023/04/30 03:18:55;;;;;;;3.55;2.25;;;;;;;;;;10327985;28;20049;-49
2023/04/30 03:23:55;;;;;;;4.55;2.50;;;;;;;;;;10327172;28;20034;-50
2023/04/30 03:28:56;;;;;;;5.32;2.13;;;;;;;;;;10328500;28;20073;-50
2023/04/30 03:33:56;;;;;;;3.05;2.53;;;;;;;;;;10314085;28;20398;-49
2023/04/30 03:38:57;;;;;;;3.67;2.13;;;;;;;;;;10320774;28;20050;-51
2023/04/30 03:43:58;;;;;;;2.58;2.10;;;;;;;;;;10326936;28;20023;-54
2023/04/30 03:48:58;;;;;;;2.10;1.90;;;;;;;;;;10325016;28;20049;-52
2023/04/30 03:53:59;;;;;;;3.22;2.35;;;;;;;;;;10322339;28;20034;-50
2023/04/30 03:59:00;;;;;;;5.18;2.20;;;;;;;;;;10340280;28;20263;-50
2023/04/30 04:04:01;;;;;;;3.10;2.22;;;;;;;;;;10305254;28;20026;-50
2023/04/30 04:09:03;;;;;;;5.03;2.08;;;;;;;;;;10325314;28;20475;-49
2023/04/30 04:14:03;;;;;;;2.00;1.90;;;;;;;;;;10308492;28;20390;-49
2023/04/30 04:19:05;;;;;;;2.22;2.00;;;;;;;;;;10313417;28;20046;-49
2023/04/30 04:24:07;;;;;;;2.97;2.10;;;;;;;;;;10318390;28;20050;-50
2023/04/30 04:29:08;;;;;;;3.33;2.00;;;;;;;;;;10325690;28;20030;-49
2023/04/30 04:34:09;;;;;;;7.22;2.20;;;;;;;;;;10323558;28;20037;-51
2023/04/30 04:39:10;;;;;;;3.63;2.17;;;;;;;;;;10316219;28;20050;-49
2023/04/30 04:44:12;;;;;;;2.05;1.85;;;;;;;;;;10324905;28;20042;-50
2023/04/30 04:49:13;;;;;;;5.22;2.13;;;;;;;;;;10324143;28;20038;-50
2023/04/30 04:54:13;;;;;;;1.98;1.88;;;;;;;;;;10322630;28;20423;-49
2023/04/30 04:59:16;;;;;;;2.05;1.58;;;;;;;;;;10323920;28;20062;-50
2023/04/30 05:04:16;;;;;;;2.83;2.03;;;;;;;;;;10325204;28;20321;-50
2023/04/30 05:09:17;;;;;;;2.40;1.95;;;;;;;;;;10323820;28;20294;-49
2023/04/30 05:14:17;;;;;;;2.28;2.08;;;;;;;;;;10323798;28;20041;-58
2023/04/30 05:19:18;;;;;;;2.15;1.98;;;;;;;;;;10325737;28;20101;-50
2023/04/30 05:24:19;;;;;;;1.90;1.80;;;;;;;;;;10322288;28;20034;-51
2023/04/30 05:29:19;;;;;;;1.75;1.65;;;;;;;;;;10305049;28;20080;-50
2023/04/30 05:34:20;;;;;;;2.28;1.90;;;;;;;;;;10328472;28;20394;-50
2023/04/30 05:39:21;;;;;;;18.27;2.10;;;;;;;;;;10323383;28;20549;-49
2023/04/30 05:44:21;;;;;;;8.68;2.13;;;;;;;;;;10322294;28;20035;-53
2023/04/30 05:49:22;;;;;;;18.77;2.45;;;;;;;;;;10324708;28;20027;-50
2023/04/30 05:54:22;;;;;;;14.63;2.90;;;;;;;;;;10323051;28;20120;-51
2023/04/30 05:59:24;;;;;;;6.38;2.45;;;;;;;;;;10312416;28;20046;-54
2023/04/30 06:04:25;;;;;;;6.18;2.17;;;;;;;;;;10325604;28;20165;-55
2023/04/30 06:09:25;;;;;;;6.03;2.70;;;;;;;;;;10327503;28;20057;-54
2023/04/30 06:14:26;;;;;;;8.02;2.70;;;;;;;;;;10330537;28;20023;-58
2023/04/30 06:19:27;;;;;;;13.20;2.67;;;;;;;;;;10312886;28;20033;-60
2023/04/30 06:24:29;;;;;;;9.40;2.60;;;;;;;;;;10333407;28;20410;-57
2023/04/30 06:29:29;;;;;;;3.20;2.55;;;;;;;;;;10330306;28;20022;-58
2023/04/30 06:34:30;;;;;;;8.18;2.55;;;;;;;;;;10331078;28;20030;-60
2023/04/30 06:39:30;;;;;;;5.03;2.70;;;;;;;;;;10329796;28;20438;-59
2023/04/30 06:44:31;;;;;;;7.93;3.60;;;;;;;;;;10331177;28;20042;-59
2023/04/30 06:49:32;;;;;;;7.65;3.22;;;;;;;;;;10330456;28;20027;-56
2023/04/30 06:54:33;;;;;;;9.45;3.50;;;;;;;;;;10328033;28;20057;-57
2023/04/30 06:59:33;;;;;;;6.65;3.88;;;;;;;;;;10312245;28;20026;-52
2023/04/30 07:04:34;;;;;;;15.05;4.63;;;;;;;;;;10326334;28;20375;-48
2023/04/30 07:09:35;;;;;;;15.25;4.30;;;;;;;;;;10328064;28;20026;-49
2023/04/30 07:14:35;;;;;;;12.20;3.83;;;;;;;;;;10328683;28;20026;-49
2023/04/30 07:19:36;;;;;;;16.98;3.92;;;;;;;;;;10327218;28;20030;-48
2023/04/30 07:24:37;;;;;;;18.05;3.97;;;;;;;;;;10328132;28;20030;-49
2023/04/30 07:29:37;;;;;;;9.63;3.90;;;;;;;;;;10328369;28;20060;-53
2023/04/30 07:34:38;;;;;;;16.92;3.65;;;;;;;;;;10314901;28;20104;-51
2023/04/30 07:39:39;;;;;;;9.20;3.65;;;;;;;;;;10326857;28;20394;-48
2023/04/30 07:44:40;;;;;;;10.23;3.38;;;;;;;;;;10318112;28;20034;-49
2023/04/30 07:49:41;;;;;;;13.90;4.97;;;;;;;;;;10328331;28;20057;-49
2023/04/30 07:54:41;;;;;;;11.00;3.58;;;;;;;;;;10323302;28;20103;-52
2023/04/30 07:59:42;;;;;;;9.63;3.42;;;;;;;;;;10318079;28;20023;-48
2023/04/30 08:04:42;;;;;;;7.30;3.38;;;;;;;;;;10327134;28;20356;-50
2023/04/30 08:09:43;;;;;;;7.63;3.38;;;;;;;;;;10325916;28;20034;-49
2023/04/30 08:14:44;;;;;;;12.52;3.30;;;;;;;;;;10312574;28;20096;-49
2023/04/30 08:19:44;;;;;;;7.80;3.38;;;;;;;;;;10324235;28;20446;-48
2023/04/30 08:24:45;;;;;;;9.48;2.92;;;;;;;;;;10320300;28;20093;-48
2023/04/30 08:29:46;;;;;;;10.10;2.80;;;;;;;;;;10304643;28;20030;-58
2023/04/30 08:34:46;;;;;;;6.78;3.13;;;;;;;;;;10325612;28;20057;-59
2023/04/30 08:39:47;;;;;;;14.10;3.88;;;;;;;;;;10324168;28;20525;-59
2023/04/30 08:44:48;;;;;;;6.50;3.17;;;;;;;;;;10313304;28;20096;-58
2023/04/30 08:49:49;;;;;;;14.27;2.85;;;;;;;;;;10334223;28;20042;-48
2023/04/30 08:54:50;;;;;;;4.28;2.83;;;;;;;;;;10306313;28;20196;-51
2023/04/30 08:59:53;;;;;;;6.60;2.90;;;;;;;;;;10327198;28;20109;-58
2023/04/30 09:04:53;;;;;;;4.65;2.60;;;;;;;;;;10327514;28;20056;-55
2023/04/30 09:09:54;;;;;;;3.53;2.70;;;;;;;;;;10324149;28;20073;-51
2023/04/30 09:15:03;;;;;;;4.95;2.85;;;;;;;;;;10335788;28;20034;-48
2023/04/30 09:20:12;;;;;;;5.63;3.00;;;;;;;;;;10323493;28;20457;-50
2023/04/30 09:25:13;;;;;;;6.25;3.45;;;;;;;;;;10323307;28;20113;-53
2023/04/30 09:30:31;;;;;;;5.45;2.65;;;;;;;;;;10307138;28;20099;-50
2023/04/30 09:35:34;;;;;;;;;;;;;;;;;;10327446;28;20039;-48
2023/04/30 09:40:40;;;;;;;6.18;2.85;;;;;;;;;;10330654;28;19925;-48
2023/04/30 09:45:51;;;;;;;5.53;2.92;;;;;;;;;;10332015;28;20033;-49
2023/04/30 09:50:52;;;;;;;5.78;2.92;;;;;;;;;;10332022;28;20034;-51
2023/04/30 09:55:53;;;;;;;4.07;3.00;;;;;;;;;;10328693;28;20026;-48
2023/04/30 10:00:57;;;;;;;3.17;2.40;;;;;;;;;;10314850;28;20107;-60
2023/04/30 10:05:58;;;;;;;3.92;2.97;;;;;;;;;;10313418;28;20038;-48
2023/04/30 10:11:05;;;;;;;3.97;3.05;;;;;;;;;;10314873;28;20113;-50
2023/04/30 10:16:27;;;;;;;4.90;3.00;;;;;;;;;;10330658;28;20023;-59
2023/04/30 10:21:30;;;;;;;4.35;3.00;;;;;;;;;;10329813;28;20113;-59
2023/04/30 10:26:31;;;;;;;5.32;2.80;;;;;;;;;;10330853;28;20209;-60
2023/04/30 10:31:33;;;;;;;4.07;3.20;;;;;;;;;;10312170;28;20513;-51
2023/04/30 10:36:49;;;;;;;6.30;2.92;;;;;;;;;;10299570;28;20061;-60
2023/04/30 10:41:50;;;;;;;4.70;2.83;;;;;;;;;;10313012;28;20050;-59
2023/04/30 10:46:59;;;;;;;5.10;2.97;;;;;;;;;;10329541;28;20498;-55
2023/04/30 10:52:02;;;;;;;3.20;2.53;;;;;;;;;;10326239;28;20125;-59
2023/04/30 10:57:13;;;;;;;4.72;2.55;;;;;;;;;;10329899;28;20489;-59
2023/04/30 11:02:17;;;;;;;3.42;2.50;;;;;;;;;;10323246;28;20026;-59
2023/04/30 11:07:18;;;;;;;4.57;2.70;;;;;;;;;;10324217;28;20033;-54
2023/04/30 11:12:27;;;;;;;5.82;2.75;;;;;;;;;;10324386;28;20041;-48
2023/04/30 11:17:28;;;;;;;5.35;2.90;;;;;;;;;;10320304;28;20052;-48
2023/04/30 11:22:34;;;;;;;3.97;2.97;;;;;;;;;;10329504;28;20038;-51
2023/04/30 11:27:37;;;;;;;3.95;3.10;;;;;;;;;;10323187;28;20443;-50
2023/04/30 11:32:39;;;;;;;3.95;3.13;;;;;;;;;;10325077;28;20023;-52
2023/04/30 11:37:43;;;;;;;4.00;3.05;;;;;;;;;;10343477;28;20050;-48
2023/04/30 11:42:45;;;;;;;3.85;3.00;;;;;;;;;;10334910;28;20490;-49
2023/04/30 11:47:53;;;;;;;5.43;3.25;;;;;;;;;;10318941;28;20034;-51
2023/04/30 11:53:01;;;;;;;4.93;3.42;;;;;;;;;;10331424;28;20034;-50
2023/04/30 11:58:02;;;;;;;4.03;3.10;;;;;;;;;;10284280;28;20050;-48
2023/04/30 12:03:03;;;;;;;4.78;3.03;;;;;;;;;;10322067;28;20106;-48
2023/04/30 12:08:05;;;;;;;4.15;3.22;;;;;;;;;;10326148;28;20038;-54
2023/04/30 12:13:06;;;;;;;4.60;3.35;;;;;;;;;;10314149;28;20482;-54
2023/04/30 12:18:14;;;;;;;5.18;3.80;;;;;;;;;;10309343;28;20138;-59
2023/04/30 12:23:14;;;;;;;4.60;3.40;;;;;;;;;;10334080;28;20043;-54
2023/04/30 12:28:15;;;;;;;4.95;3.20;;;;;;;;;;10334978;28;20042;-54
2023/04/30 12:33:17;;;;;;;5.38;3.40;;;;;;;;;;10330992;28;20030;-59
2023/04/30 12:38:20;;;;;;;7.25;3.40;;;;;;;;;;10324583;28;20069;-59
2023/04/30 12:43:20;;;;;;;6.70;3.33;;;;;;;;;;10319623;28;20086;-59
2023/04/30 12:48:24;;;;;;;9.55;3.90;;;;;;;;;;10323687;28;20144;-58
2023/04/30 12:53:25;;;;;;;4.53;3.03;;;;;;;;;;10333687;28;20042;-59
2023/04/30 12:58:30;;;;;;;9.20;3.53;;;;;;;;;;10306359;28;20027;-55
2023/04/30 13:03:30;;;;;;;6.63;3.28;;;;;;;;;;10322318;28;20038;-51
2023/04/30 13:08:31;;;;;;;12.23;3.40;;;;;;;;;;10328907;28;20022;-48
2023/04/30 13:13:32;;;;;;;7.90;3.28;;;;;;;;;;10324598;28;20101;-50
2023/04/30 13:18:32;;;;;;;7.60;3.80;;;;;;;;;;10325170;28;20034;-54
2023/04/30 13:23:33;;;;;;;4.15;3.30;;;;;;;;;;10324293;28;20034;-57
2023/04/30 13:28:34;;;;;;;4.88;3.28;;;;;;;;;;10323626;28;20034;-50
2023/04/30 13:33:34;;;;;;;5.28;3.70;;;;;;;;;;10323844;28;20018;-52
2023/04/30 13:38:35;;;;;;;5.18;4.15;;;;;;;;;;10324144;28;20073;-48
2023/04/30 13:43:37;;;;;;;8.88;3.55;;;;;;;;;;10323907;28;20085;-57
2023/04/30 13:48:38;;;;;;;4.10;3.65;;;;;;;;;;10313049;28;20537;-52
2023/04/30 13:53:39;;;;;;;6.53;3.60;;;;;;;;;;10321836;28;20026;-48
2023/04/30 13:58:39;;;;;;;4.15;3.38;;;;;;;;;;10319888;28;20209;-49
2023/04/30 14:03:40;;;;;;;4.45;3.42;;;;;;;;;;10335631;28;20041;-53
2023/04/30 14:08:41;;;;;;;4.32;3.05;;;;;;;;;;10324352;28;20034;-50
2023/04/30 14:13:41;;;;;;;5.03;3.50;;;;;;;;;;10320455;28;20030;-55
2023/04/30 14:18:42;;;;;;;4.60;3.15;;;;;;;;;;10319803;28;20038;-59
2023/04/30 14:23:45;;;;;;;4.45;3.33;;;;;;;;;;10308240;28;20183;-57
2023/04/30 14:28:46;;;;;;;4.68;3.10;;;;;;;;;;10319127;28;20070;-52
2023/04/30 14:33:47;;;;;;;3.45;3.13;;;;;;;;;;10330380;28;20386;-52
2023/04/30 14:38:47;;;;;;;4.00;3.47;;;;;;;;;;10327259;28;20049;-54
2023/04/30 14:43:48;;;;;;;3.38;2.92;;;;;;;;;;10331628;28;20190;-50
2023/04/30 14:48:49;;;;;;;4.85;3.03;;;;;;;;;;10326083;28;20039;-52
2023/04/30 14:53:50;;;;;;;3.95;3.13;;;;;;;;;;10328589;28;20089;-54
2023/04/30 14:58:51;;;;;;;6.78;3.03;;;;;;;;;;10328375;28;20441;-55
2023/04/30 15:03:51;;;;;;;6.40;3.15;;;;;;;;;;10315259;28;20030;-55
2023/04/30 15:08:52;;;;;;;3.00;2.80;;;;;;;;;;10327573;28;20552;-49
2023/04/30 15:13:54;;;;;;;3.15;2.88;;;;;;;;;;10327006;28;20033;-51
2023/04/30 15:18:54;;;;;;;3.75;2.75;;;;;;;;;;10324093;28;20529;-58
2023/04/30 15:23:55;;;;;;;3.13;2.80;;;;;;;;;;10327262;28;20041;-59
2023/04/30 15:28:55;;;;;;;4.93;3.10;;;;;;;;;;10325432;28;20030;-48
2023/04/30 15:33:56;;;;;;;6.50;2.80;;;;;;;;;;10325060;28;20482;-49
2023/04/30 15:38:56;;;;;;;4.70;3.13;;;;;;;;;;10314120;28;20042;-52
2023/04/30 15:43:57;;;;;;;4.72;3.28;;;;;;;;;;10322498;28;20038;-58
2023/04/30 15:48:58;;;;;;;4.35;3.30;;;;;;;;;;10321845;28;20042;-56
2023/04/30 15:53:59;;;;;;;3.90;2.67;;;;;;;;;;10328646;28;20026;-49
2023/04/30 15:58:59;;;;;;;4.55;3.00;;;;;;;;;;10300206;28;20034;-49
2023/04/30 16:04:00;;;;;;;2.90;2.67;;;;;;;;;;10327549;28;20521;-60
2023/04/30 16:09:05;;;;;;;4.80;2.47;;;;;;;;;;10308566;28;20018;-59
2023/04/30 16:14:06;;;;;;;2.85;2.50;;;;;;;;;;10320583;28;20430;-51
2023/04/30 16:19:07;;;;;;;3.78;3.00;;;;;;;;;;10326762;28;20080;-51
2023/04/30 16:24:09;;;;;;;3.38;2.58;;;;;;;;;;10325990;28;20034;-50
2023/04/30 16:29:09;;;;;;;6.05;2.70;;;;;;;;;;10324325;28;20598;-55
2023/04/30 16:34:12;;;;;;;3.17;2.45;;;;;;;;;;10318365;28;20174;-52
2023/04/30 16:39:13;;;;;;;2.92;2.67;;;;;;;;;;10297087;28;20046;-53
2023/04/30 16:44:14;;;;;;;4.65;2.80;;;;;;;;;;10309633;28;20626;-54
2023/04/30 16:49:15;;;;;;;3.35;2.75;;;;;;;;;;10319069;28;20255;-53
2023/04/30 16:54:16;;;;;;;3.00;2.70;;;;;;;;;;10330562;28;20105;-53
2023/04/30 16:59:16;;;;;;;2.95;2.70;;;;;;;;;;10331209;28;20112;-58
2023/04/30 17:04:17;;;;;;;5.20;2.50;;;;;;;;;;10327419;28;20041;-56
2023/04/30 17:09:20;;;;;;;2.78;2.45;;;;;;;;;;10310826;28;20027;-52
2023/04/30 17:14:21;;;;;;;7.45;2.70;;;;;;;;;;10309271;28;20034;-50
2023/04/30 17:19:22;;;;;;;3.80;2.65;;;;;;;;;;10315818;28;20034;-50
2023/04/30 17:24:23;;;;;;;3.00;2.70;;;;;;;;;;10321440;28;20102;-58
2023/04/30 17:29:23;;;;;;;3.13;2.30;;;;;;;;;;10321054;28;20031;-54
2023/04/30 17:34:26;;;;;;;3.38;2.63;;;;;;;;;;10323342;28;20527;-49
2023/04/30 17:39:27;;;;;;;4.47;2.50;;;;;;;;;;10323549;28;20047;-55
2023/04/30 17:44:30;;;;;;;5.45;2.88;;;;;;;;;;10324724;28;20026;-52
2023/04/30 17:49:31;;;;;;;4.03;2.65;;;;;;;;;;10319830;28;20058;-50
2023/04/30 17:54:32;;;;;;;3.65;2.50;;;;;;;;;;10317137;28;20137;-52
2023/04/30 17:59:33;;;;;;;4.55;2.40;;;;;;;;;;10317587;28;20022;-53
2023/04/30 18:04:34;;;;;;;2.72;2.45;;;;;;;;;;10324655;28;20030;-49
2023/04/30 18:09:35;;;;;;;6.30;2.60;;;;;;;;;;10331059;28;20093;-49
2023/04/30 18:14:35;;;;;;;5.82;2.50;;;;;;;;;;10330576;28;20030;-53
2023/04/30 18:19:43;;;;;;;2.40;2.20;;;;;;;;;;10330517;28;20030;-51
2023/04/30 18:24:43;;;;;;;4.07;2.57;;;;;;;;;;10331007;28;20057;-50
2023/04/30 18:29:44;;;;;;;3.08;2.40;;;;;;;;;;10329785;28;21497;-53
2023/04/30 18:34:45;;;;;;;3.78;2.65;;;;;;;;;;10328681;28;20034;-50
2023/04/30 18:39:45;;;;;;;3.10;2.50;;;;;;;;;;10330259;28;20275;-49
2023/04/30 18:44:46;;;;;;;2.50;2.30;;;;;;;;;;10330588;28;20026;-49
2023/04/30 18:49:46;;;;;;;2.67;2.30;;;;;;;;;;10329231;28;20084;-50
2023/04/30 18:54:47;;;;;;;4.53;2.15;;;;;;;;;;10329562;28;20442;-49
2023/04/30 18:59:48;;;;;;;7.40;2.42;;;;;;;;;;10339449;28;20502;-53
2023/04/30 19:04:49;;;;;;;3.03;2.40;;;;;;;;;;10329676;28;20033;-51
2023/04/30 19:09:50;;;;;;;5.05;2.70;;;;;;;;;;10324980;28;20076;-53
2023/04/30 19:14:51;;;;;;;4.13;2.33;;;;;;;;;;10328414;28;20489;-50
2023/04/30 19:19:52;;;;;;;3.83;2.35;;;;;;;;;;10327202;28;20393;-50
2023/04/30 19:24:53;;;;;;;4.45;2.20;;;;;;;;;;10328903;28;20054;-53
2023/04/30 19:29:56;;;;;;;3.25;2.17;;;;;;;;;;10327225;28;20026;-50
2023/04/30 19:34:57;;;;;;;3.40;2.40;;;;;;;;;;10327876;28;20045;-50
2023/04/30 19:39:58;;;;;;;2.50;2.20;;;;;;;;;;10326181;28;20054;-51
2023/04/30 19:44:58;;;;;;;3.63;2.13;;;;;;;;;;10327041;28;20089;-49
2023/04/30 19:49:59;;;;;;;2.72;2.15;;;;;;;;;;10327596;28;20037;-50
2023/04/30 19:55:00;;;;;;;2.83;2.38;;;;;;;;;;10326539;28;20041;-50
2023/04/30 20:00:03;;;;;;;2.75;2.30;;;;;;;;;;10318426;28;20029;-50
2023/04/30 20:05:04;;;;;;;3.35;2.35;;;;;;;;;;10326290;28;20033;-55
2023/04/30 20:10:08;;;;;;;2.22;2.03;;;;;;;;;;10325209;28;20398;-49
2023/04/30 20:15:09;;;;;;;3.53;2.40;;;;;;;;;;10326703;28;20052;-50
2023/04/30 20:20:11;;;;;;;2.15;1.95;;;;;;;;;;10326439;28;20038;-49
2023/04/30 20:25:12;;;;;;;3.65;2.08;;;;;;;;;;10304338;28;20379;-56
2023/04/30 20:30:12;;;;;;;3.53;2.47;;;;;;;;;;10325210;28;20041;-58
2023/04/30 20:35:13;;;;;;;2.38;2.17;;;;;;;;;;10323810;28;20038;-49
2023/04/30 20:40:13;;;;;;;2.50;1.92;;;;;;;;;;10318070;28;20042;-50
2023/04/30 20:45:14;;;;;;;2.70;2.20;;;;;;;;;;10323264;28;20382;-53
2023/04/30 20:50:15;;;;;;;2.90;2.20;;;;;;;;;;10323730;28;20101;-54
2023/04/30 20:55:16;;;;;;;4.85;2.30;;;;;;;;;;10318782;28;20529;-56
2023/04/30 21:00:16;;;;;;;4.72;2.85;;;;;;;;;;10324775;28;20027;-59
2023/04/30 21:05:17;;;;;;;2.72;2.22;;;;;;;;;;10323934;28;20030;-55
2023/04/30 21:10:18;;;;;;;4.15;2.58;;;;;;;;;;10324080;28;20034;-56
2023/04/30 21:15:18;;;;;;;5.10;2.90;;;;;;;;;;10324543;28;20029;-56
2023/04/30 21:20:19;;;;;;;3.33;2.40;;;;;;;;;;10305188;28;20046;-50
2023/04/30 21:25:21;;;;;;;5.15;2.40;;;;;;;;;;10322442;28;20041;-50
2023/04/30 21:30:21;;;;;;;7.72;2.80;;;;;;;;;;10321921;28;20507;-59
2023/04/30 21:35:23;;;;;;;6.13;3.13;;;;;;;;;;10328580;28;20102;-50
2023/04/30 21:40:23;;;;;;;8.18;2.90;;;;;;;;;;10331503;28;20120;-50
2023/04/30 21:45:24;;;;;;;6.75;3.05;;;;;;;;;;10331334;28;20077;-49
2023/04/30 21:50:25;;;;;;;6.05;3.10;;;;;;;;;;10324411;28;20030;-59
2023/04/30 21:55:26;;;;;;;7.53;3.38;;;;;;;;;;10324994;28;20479;-50
2023/04/30 22:00:26;;;;;;;8.75;3.67;;;;;;;;;;10331229;28;20026;-49
2023/04/30 22:05:27;;;;;;;9.90;3.65;;;;;;;;;;10333246;28;20046;-50
2023/04/30 22:10:28;;;;;;;10.43;3.90;;;;;;;;;;10329961;28;20494;-60
2023/04/30 22:15:30;;;;;;;10.75;3.25;;;;;;;;;;10327264;28;20026;-49
2023/04/30 22:20:30;;;;;;;8.88;3.20;;;;;;;;;;10326284;28;20056;-52
2023/04/30 22:25:31;;;;;;;10.13;3.17;;;;;;;;;;10329946;28;20375;-50
2023/04/30 22:30:31;;;;;;;8.70;3.00;;;;;;;;;;10331909;28;20367;-58
2023/04/30 22:35:37;;;;;;;13.63;3.10;;;;;;;;;;10327666;28;20403;-50
2023/04/30 22:40:38;;;;;;;11.30;3.13;;;;;;;;;;10326099;28;20482;-50
2023/04/30 22:45:39;;;;;;;7.57;3.30;;;;;;;;;;10305765;28;20035;-59
2023/04/30 22:50:39;;;;;;;11.15;3.05;;;;;;;;;;10336977;28;20474;-56
2023/04/30 22:55:40;;;;;;;18.83;3.30;;;;;;;;;;10353352;28;20038;-53
2023/04/30 23:00:41;;;;;;;13.90;3.05;;;;;;;;;;10354949;28;20053;-50
2023/04/30 23:05:42;;;;;;;12.88;3.50;;;;;;;;;;10348477;28;20049;-53
2023/04/30 23:10:44;;;;;;;14.07;3.97;;;;;;;;;;10354238;28;20470;-52
2023/04/30 23:15:44;;;;;;;6.20;3.05;;;;;;;;;;10359767;28;20041;-53
2023/04/30 23:20:46;;;;;;;9.63;3.10;;;;;;;;;;10353395;28;20481;-49
2023/04/30 23:25:46;;;;;;;12.07;2.92;;;;;;;;;;10352908;28;20026;-52
2023/04/30 23:30:54;;;;;;;6.38;2.88;;;;;;;;;;10358603;28;20021;-57
2023/04/30 23:35:54;;;;;;;14.43;2.97;;;;;;;;;;10356627;28;20030;-56
2023/04/30 23:40:55;;;;;;;7.65;2.83;;;;;;;;;;10356293;28;20080;-49
2023/04/30 23:45:56;;;;;;;12.20;3.28;;;;;;;;;;10356708;28;20022;-49
2023/04/30 23:51:02;;;;;;;5.55;2.90;;;;;;;;;;10334920;28;20470;-50
2023/04/30 23:56:03;;;;;;;5.85;2.70;;;;;;;;;;10324532;28;20070;-56
